createdAt,value
2018-08-03T00:00:44.479Z,3.27
2018-08-03T00:03:12.711Z,3.27
2018-08-03T00:05:40.912Z,3.17
2018-08-03T00:08:09.149Z,3.33
2018-08-03T00:10:37.374Z,3.30
2018-08-03T00:13:05.594Z,3.50
2018-08-03T00:15:33.812Z,3.20
2018-08-03T00:18:02.027Z,3.23
2018-08-03T00:20:30.246Z,3.33
2018-08-03T00:22:58.463Z,3.07
2018-08-03T00:25:26.702Z,3.17
2018-08-03T00:27:54.954Z,3.10
2018-08-03T00:30:24.650Z,3.13
2018-08-03T00:32:52.904Z,3.73
2018-08-03T00:35:21.104Z,2.97
2018-08-03T00:37:49.324Z,3.10
2018-08-03T00:40:17.533Z,3.47
2018-08-03T00:42:45.767Z,3.50
2018-08-03T00:45:14.016Z,3.10
2018-08-03T00:47:42.231Z,3.30
2018-08-03T00:50:10.453Z,3.33
2018-08-03T00:52:38.663Z,3.40
2018-08-03T00:55:06.880Z,3.30
2018-08-03T00:57:35.255Z,3.20
2018-08-03T01:00:03.501Z,3.40
2018-08-03T01:02:31.798Z,3.20
2018-08-03T01:05:00.060Z,3.27
2018-08-03T01:07:28.252Z,3.33
2018-08-03T01:09:56.474Z,3.57
2018-08-03T01:12:24.673Z,3.53
2018-08-03T01:14:52.918Z,3.80
2018-08-03T01:17:21.118Z,3.03
2018-08-03T01:19:49.358Z,3.40
2018-08-03T01:22:17.567Z,3.90
2018-08-03T01:24:45.799Z,3.60
2018-08-03T01:27:13.985Z,3.40
2018-08-03T01:29:42.218Z,3.20
2018-08-03T01:32:10.432Z,3.77
2018-08-03T01:34:38.660Z,3.33
2018-08-03T01:37:06.862Z,3.13
2018-08-03T01:39:38.724Z,3.13
2018-08-03T01:42:07.051Z,3.50
2018-08-03T01:44:35.272Z,3.50
2018-08-03T01:47:03.476Z,3.53
2018-08-03T01:49:31.715Z,3.50
2018-08-03T01:51:59.909Z,3.20
2018-08-03T01:54:28.145Z,3.00
2018-08-03T01:56:56.351Z,3.33
2018-08-03T01:59:24.585Z,3.57
2018-08-03T02:01:52.782Z,3.07
2018-08-03T02:04:21.026Z,3.27
2018-08-03T02:06:49.228Z,3.37
2018-08-03T02:09:17.469Z,3.10
2018-08-03T02:11:45.662Z,3.13
2018-08-03T02:14:13.873Z,3.30
2018-08-03T02:16:42.086Z,3.67
2018-08-03T02:19:10.079Z,3.70
2018-08-03T02:21:38.303Z,3.33
2018-08-03T02:24:06.543Z,3.13
2018-08-03T02:26:34.731Z,3.17
2018-08-03T02:29:02.948Z,3.60
2018-08-03T02:31:31.150Z,3.50
2018-08-03T02:33:59.370Z,3.10
2018-08-03T02:36:27.611Z,3.43
2018-08-03T02:38:55.832Z,3.40
2018-08-03T02:41:24.048Z,2.90
2018-08-03T02:43:52.895Z,3.53
2018-08-03T02:46:21.116Z,3.63
2018-08-03T02:48:49.359Z,3.60
2018-08-03T02:51:17.551Z,3.40
2018-08-03T02:53:45.803Z,3.40
2018-08-03T02:56:14.019Z,3.10
2018-08-03T02:58:42.225Z,3.23
2018-08-03T03:01:10.699Z,3.77
2018-08-03T03:03:38.914Z,3.10
2018-08-03T03:06:07.307Z,3.00
2018-08-03T03:08:35.516Z,3.53
2018-08-03T03:11:06.786Z,3.27
2018-08-03T03:13:34.987Z,3.53
2018-08-03T03:16:03.220Z,3.60
2018-08-03T03:18:31.450Z,3.67
2018-08-03T03:20:59.660Z,3.53
2018-08-03T03:23:27.884Z,3.57
2018-08-03T03:25:56.091Z,3.13
2018-08-03T03:28:24.327Z,3.30
2018-08-03T03:30:52.546Z,3.40
2018-08-03T03:33:20.760Z,3.60
2018-08-03T03:35:48.983Z,2.93
2018-08-03T03:38:17.252Z,3.37
2018-08-03T03:40:45.531Z,3.40
2018-08-03T03:43:13.731Z,3.40
2018-08-03T03:45:41.954Z,3.70
2018-08-03T03:48:10.151Z,3.37
2018-08-03T03:50:38.383Z,3.80
2018-08-03T03:53:06.594Z,3.97
2018-08-03T03:55:34.810Z,3.50
2018-08-03T03:58:03.027Z,3.27
2018-08-03T04:00:31.282Z,3.50
2018-08-03T04:02:59.494Z,3.37
2018-08-03T04:05:27.700Z,3.50
2018-08-03T04:07:55.896Z,3.73
2018-08-03T04:10:24.140Z,3.73
2018-08-03T04:12:52.335Z,3.77
2018-08-03T04:15:20.564Z,3.67
2018-08-03T04:17:48.859Z,3.60
2018-08-03T04:20:17.092Z,3.97
2018-08-03T04:22:45.287Z,3.73
2018-08-03T04:25:13.507Z,3.20
2018-08-03T04:27:41.715Z,3.23
2018-08-03T04:30:09.955Z,3.40
2018-08-03T04:32:38.177Z,3.70
2018-08-03T04:35:06.405Z,3.60
2018-08-03T04:37:34.607Z,3.40
2018-08-03T04:40:02.828Z,3.30
2018-08-03T04:42:31.067Z,3.40
2018-08-03T04:44:59.540Z,3.53
2018-08-03T04:47:27.747Z,3.53
2018-08-03T04:49:56.798Z,3.57
2018-08-03T04:52:25.007Z,3.57
2018-08-03T04:54:53.968Z,3.33
2018-08-03T04:57:21.961Z,3.73
2018-08-03T04:59:49.947Z,3.30
2018-08-03T05:02:18.196Z,3.93
2018-08-03T05:04:46.485Z,3.30
2018-08-03T05:07:14.674Z,3.33
2018-08-03T05:09:42.895Z,3.53
2018-08-03T05:12:11.170Z,3.57
2018-08-03T05:14:39.389Z,3.60
2018-08-03T05:17:07.627Z,3.63
2018-08-03T05:19:35.830Z,3.33
2018-08-03T05:22:04.050Z,3.70
2018-08-03T05:24:32.251Z,3.50
2018-08-03T05:27:02.749Z,3.33
2018-08-03T05:29:30.999Z,4.00
2018-08-03T05:31:59.203Z,3.17
2018-08-03T05:34:27.395Z,3.27
2018-08-03T05:36:55.619Z,3.30
2018-08-03T05:39:23.856Z,3.27
2018-08-03T05:41:52.134Z,3.20
2018-08-03T05:44:27.444Z,3.87
2018-08-03T05:46:55.663Z,8.33
2018-08-03T05:49:23.866Z,3.27
2018-08-03T05:51:52.083Z,3.23
2018-08-03T05:54:20.279Z,3.13
2018-08-03T05:56:48.491Z,3.00
2018-08-03T05:59:16.691Z,2.87
2018-08-03T06:01:44.680Z,2.77
2018-08-03T06:04:12.886Z,3.07
2018-08-03T06:06:41.121Z,3.27
2018-08-03T06:09:10.652Z,3.53
2018-08-03T06:11:38.918Z,3.13
2018-08-03T06:14:07.684Z,2.70
2018-08-03T06:16:36.011Z,3.30
2018-08-03T06:19:04.231Z,2.90
2018-08-03T06:21:32.771Z,2.80
2018-08-03T06:24:00.989Z,3.03
2018-08-03T06:26:29.228Z,2.80
2018-08-03T06:28:57.446Z,3.40
2018-08-03T06:31:25.662Z,3.10
2018-08-03T06:33:53.874Z,3.17
2018-08-03T06:36:22.100Z,3.10
2018-08-03T06:38:50.299Z,2.63
2018-08-03T06:41:18.547Z,2.70
2018-08-03T06:43:46.767Z,2.70
2018-08-03T06:46:15.020Z,2.70
2018-08-03T06:48:43.226Z,2.30
2018-08-03T06:51:11.428Z,2.60
2018-08-03T06:53:39.676Z,2.40
2018-08-03T06:56:07.879Z,2.20
2018-08-03T06:58:36.083Z,2.47
2018-08-03T07:01:04.300Z,2.80
2018-08-03T07:03:32.526Z,2.40
2018-08-03T07:06:00.723Z,3.10
2018-08-03T07:08:28.766Z,2.50
2018-08-03T07:10:56.943Z,2.50
2018-08-03T07:13:25.176Z,2.60
2018-08-03T07:15:53.375Z,2.37
2018-08-03T07:18:21.599Z,2.50
2018-08-03T07:20:49.855Z,2.17
2018-08-03T07:23:18.076Z,2.33
2018-08-03T07:25:46.318Z,2.25
2018-08-03T07:28:14.531Z,2.25
2018-08-03T07:30:42.755Z,2.05
2018-08-03T07:33:10.968Z,2.22
2018-08-03T07:35:39.171Z,1.87
2018-08-03T07:38:07.493Z,1.82
2018-08-03T07:40:35.720Z,2.20
2018-08-03T07:43:03.992Z,1.75
2018-08-03T07:45:32.220Z,1.92
2018-08-03T07:48:00.447Z,2.02
2018-08-03T07:50:28.650Z,2.20
2018-08-03T07:52:56.902Z,1.80
2018-08-03T07:55:25.114Z,2.12
2018-08-03T07:57:53.659Z,1.82
2018-08-03T08:00:21.892Z,1.80
2018-08-03T08:02:50.111Z,1.90
2018-08-03T08:05:18.325Z,2.00
2018-08-03T08:07:46.564Z,1.70
2018-08-03T08:10:14.793Z,1.90
2018-08-03T08:12:43.834Z,1.67
2018-08-03T08:15:12.072Z,2.00
2018-08-03T08:17:40.283Z,2.37
2018-08-03T08:20:08.832Z,1.50
2018-08-03T08:22:37.050Z,1.92
2018-08-03T08:25:05.184Z,1.82
2018-08-03T08:27:33.412Z,2.00
2018-08-03T08:30:01.642Z,2.05
2018-08-03T08:32:29.881Z,2.00
2018-08-03T08:34:58.075Z,1.80
2018-08-03T08:37:26.287Z,2.12
2018-08-03T08:39:54.487Z,2.17
2018-08-03T08:42:22.711Z,1.60
2018-08-03T08:44:50.954Z,2.00
2018-08-03T08:47:19.142Z,2.60
2018-08-03T08:49:47.380Z,1.95
2018-08-03T08:52:15.592Z,1.75
2018-08-03T08:54:43.826Z,2.08
2018-08-03T08:57:11.831Z,1.95
2018-08-03T08:59:40.091Z,1.77
2018-08-03T09:02:08.267Z,1.70
2018-08-03T09:04:36.487Z,1.72
2018-08-03T09:07:05.302Z,2.30
2018-08-03T09:09:33.555Z,2.02
2018-08-03T09:12:01.747Z,1.98
2018-08-03T09:14:29.989Z,1.80
2018-08-03T09:16:58.203Z,2.20
2018-08-03T09:19:26.452Z,1.80
2018-08-03T09:21:54.659Z,1.90
2018-08-03T09:24:22.887Z,2.45
2018-08-03T09:26:51.092Z,1.60
2018-08-03T09:29:19.304Z,2.02
2018-08-03T09:31:47.546Z,1.80
2018-08-03T09:34:15.767Z,1.90
2018-08-03T09:36:43.968Z,1.70
2018-08-03T09:39:12.191Z,1.90
2018-08-03T09:41:40.399Z,1.77
2018-08-03T09:44:08.619Z,1.70
2018-08-03T09:46:36.815Z,2.00
2018-08-03T09:49:05.092Z,2.00
2018-08-03T09:51:33.313Z,1.87
2018-08-03T09:54:01.590Z,2.00
2018-08-03T09:56:29.841Z,2.02
2018-08-03T09:58:58.054Z,2.30
2018-08-03T10:01:26.252Z,2.00
2018-08-03T10:03:54.889Z,1.90
2018-08-03T10:06:23.088Z,1.98
2018-08-03T10:08:51.331Z,1.80
2018-08-03T10:11:19.567Z,1.80
2018-08-03T10:13:47.883Z,1.98
2018-08-03T10:16:16.114Z,1.87
2018-08-03T10:18:44.369Z,1.85
2018-08-03T10:21:13.423Z,2.22
2018-08-03T10:23:41.636Z,2.15
2018-08-03T10:26:09.838Z,2.02
2018-08-03T10:28:38.048Z,2.08
2018-08-03T10:31:06.430Z,1.80
2018-08-03T10:33:34.653Z,2.17
2018-08-03T10:36:02.861Z,1.70
2018-08-03T10:38:31.083Z,1.90
2018-08-03T10:40:59.319Z,1.92
2018-08-03T10:43:27.518Z,1.70
2018-08-03T10:45:55.575Z,1.85
2018-08-03T10:48:23.573Z,2.08
2018-08-03T10:50:51.794Z,1.90
2018-08-03T10:53:20.025Z,2.00
2018-08-03T10:55:48.559Z,2.00
2018-08-03T10:58:16.883Z,1.92
2018-08-03T11:00:44.862Z,1.90
2018-08-03T11:03:13.062Z,1.90
2018-08-03T11:05:41.283Z,2.17
2018-08-03T11:08:09.494Z,2.02
2018-08-03T11:10:37.730Z,2.17
2018-08-03T11:13:06.295Z,2.12
2018-08-03T11:15:34.508Z,2.15
2018-08-03T11:18:02.736Z,2.52
2018-08-03T11:20:30.976Z,2.20
2018-08-03T11:22:59.196Z,1.87
2018-08-03T11:25:27.436Z,2.80
2018-08-03T11:27:55.635Z,2.10
2018-08-03T11:30:23.868Z,2.25
2018-08-03T11:32:52.091Z,2.15
2018-08-03T11:35:20.316Z,2.15
2018-08-03T11:37:48.547Z,2.17
2018-08-03T11:40:16.770Z,2.20
2018-08-03T11:42:45.044Z,2.47
2018-08-03T11:45:13.330Z,2.17
2018-08-03T11:47:41.516Z,2.10
2018-08-03T11:50:10.806Z,1.85
2018-08-03T11:52:39.430Z,2.25
2018-08-03T11:55:07.652Z,2.42
2018-08-03T11:57:35.847Z,3.22
2018-08-03T12:00:04.123Z,2.60
2018-08-03T12:02:32.349Z,2.25
2018-08-03T12:05:00.585Z,2.30
2018-08-03T12:07:28.792Z,2.70
2018-08-03T12:09:57.043Z,2.55
2018-08-03T12:12:25.055Z,2.98
2018-08-03T12:14:53.303Z,2.67
2018-08-03T12:17:21.516Z,2.80
2018-08-03T12:19:49.915Z,2.52
2018-08-03T12:22:18.152Z,3.22
2018-08-03T12:24:46.364Z,3.02
2018-08-03T12:27:14.639Z,2.25
2018-08-03T12:29:42.973Z,2.50
2018-08-03T12:32:11.166Z,2.75
2018-08-03T12:34:39.375Z,2.87
2018-08-03T12:37:07.636Z,2.70
2018-08-03T12:39:35.835Z,2.92
2018-08-03T12:42:04.090Z,2.98
2018-08-03T12:44:32.309Z,2.90
2018-08-03T12:47:00.528Z,2.85
2018-08-03T12:49:28.815Z,3.02
2018-08-03T12:51:57.074Z,2.90
2018-08-03T12:54:25.296Z,2.87
2018-08-03T12:56:53.554Z,2.85
2018-08-03T12:59:21.783Z,2.77
2018-08-03T13:01:49.999Z,2.90
2018-08-03T13:04:18.251Z,2.83
2018-08-03T13:06:46.451Z,2.75
2018-08-03T13:09:14.703Z,3.00
2018-08-03T13:11:42.938Z,2.95
2018-08-03T13:14:11.143Z,3.10
2018-08-03T13:16:39.359Z,3.25
2018-08-03T13:19:07.561Z,3.37
2018-08-03T13:21:37.851Z,2.72
2018-08-03T13:24:06.009Z,3.02
2018-08-03T13:26:34.622Z,2.70
2018-08-03T13:29:02.831Z,3.20
2018-08-03T13:31:31.546Z,3.00
2018-08-03T13:33:59.774Z,3.20
2018-08-03T13:36:29.275Z,3.00
2018-08-03T13:38:57.502Z,3.37
2018-08-03T13:41:25.723Z,2.92
2018-08-03T13:43:53.948Z,2.85
2018-08-03T13:46:22.190Z,2.95
2018-08-03T13:48:50.777Z,3.00
2018-08-03T13:51:19.618Z,2.95
2018-08-03T13:53:48.375Z,2.70
2018-08-03T13:56:17.390Z,3.10
2018-08-03T13:58:46.226Z,3.00
2018-08-03T14:01:26.008Z,3.00
2018-08-03T14:03:54.259Z,2.90
2018-08-03T14:06:22.449Z,3.10
2018-08-03T14:08:50.714Z,2.72
2018-08-03T14:11:19.506Z,2.92
2018-08-03T14:13:48.280Z,3.20
2018-08-03T14:16:16.625Z,3.00
2018-08-03T14:18:46.084Z,3.55
2018-08-03T14:21:14.327Z,2.95
2018-08-03T14:23:42.847Z,3.35
2018-08-03T14:26:11.065Z,2.90
2018-08-03T14:28:39.510Z,2.90
2018-08-03T14:31:07.762Z,2.90
2018-08-03T14:33:36.218Z,2.72
2018-08-03T14:36:04.420Z,2.98
2018-08-03T14:38:32.698Z,3.30
2018-08-03T14:41:02.709Z,3.02
2018-08-03T14:43:30.939Z,3.05
2018-08-03T14:45:59.153Z,3.15
2018-08-03T14:48:27.371Z,3.20
2018-08-03T14:50:55.587Z,2.80
2018-08-03T14:53:23.803Z,3.90
2018-08-03T14:55:52.032Z,3.58
2018-08-03T14:58:20.252Z,3.10
2018-08-03T15:00:48.478Z,2.98
2018-08-03T15:03:16.772Z,3.08
2018-08-03T15:05:45.127Z,3.02
2018-08-03T15:08:13.350Z,3.10
2018-08-03T15:10:41.567Z,2.90
2018-08-03T15:13:10.880Z,2.90
2018-08-03T15:15:39.111Z,2.77
2018-08-03T15:18:07.556Z,2.80
2018-08-03T15:20:35.996Z,2.70
2018-08-03T15:23:04.213Z,2.75
2018-08-03T15:25:32.423Z,2.90
2018-08-03T15:28:00.851Z,2.95
2018-08-03T15:30:29.068Z,2.62
2018-08-03T15:32:57.304Z,2.70
2018-08-03T15:35:25.674Z,3.10
2018-08-03T15:37:54.065Z,2.95
2018-08-03T15:40:22.299Z,2.72
2018-08-03T15:42:50.409Z,2.58
2018-08-03T15:45:18.611Z,3.08
2018-08-03T15:47:46.863Z,2.85
2018-08-03T15:50:15.116Z,3.20
2018-08-03T15:52:43.439Z,3.90
2018-08-03T15:55:12.115Z,3.00
2018-08-03T15:57:41.051Z,3.10
2018-08-03T16:00:09.851Z,2.67
2018-08-03T16:02:38.071Z,3.08
2018-08-03T16:05:06.764Z,2.60
2018-08-03T16:07:34.977Z,3.22
2018-08-03T16:10:03.238Z,2.85
2018-08-03T16:12:31.470Z,2.87
2018-08-03T16:14:59.452Z,3.05
2018-08-03T16:17:27.719Z,3.10
2018-08-03T16:19:55.917Z,3.10
2018-08-03T16:22:24.131Z,3.47
2018-08-03T16:24:52.343Z,3.27
2018-08-03T16:27:20.596Z,2.90
2018-08-03T16:29:48.796Z,3.22
2018-08-03T16:32:16.998Z,2.80
2018-08-03T16:34:45.223Z,2.98
2018-08-03T16:37:13.459Z,3.00
2018-08-03T16:39:41.852Z,3.37
2018-08-03T16:42:10.087Z,3.20
2018-08-03T16:44:38.406Z,2.83
2018-08-03T16:47:06.704Z,2.98
2018-08-03T16:49:34.939Z,2.77
2018-08-03T16:52:03.142Z,3.02
2018-08-03T16:54:31.361Z,3.20
2018-08-03T16:56:59.587Z,2.80
2018-08-03T16:59:27.813Z,2.77
2018-08-03T17:01:55.994Z,2.77
2018-08-03T17:04:24.229Z,2.95
2018-08-03T17:06:52.449Z,3.05
2018-08-03T17:09:20.667Z,2.80
2018-08-03T17:11:48.884Z,2.67
2018-08-03T17:14:17.095Z,3.00
2018-08-03T17:16:45.302Z,2.92
2018-08-03T17:19:13.529Z,3.10
2018-08-03T17:21:41.767Z,3.12
2018-08-03T17:24:09.988Z,3.10
2018-08-03T17:26:38.332Z,3.10
2018-08-03T17:29:07.378Z,3.22
2018-08-03T17:31:35.808Z,3.17
2018-08-03T17:34:04.166Z,2.55
2018-08-03T17:36:32.446Z,3.15
2018-08-03T17:39:00.737Z,2.55
2018-08-03T17:41:28.939Z,3.25
2018-08-03T17:43:57.159Z,2.95
2018-08-03T17:46:25.377Z,3.22
2018-08-03T17:48:53.599Z,3.15
2018-08-03T17:51:21.812Z,3.05
2018-08-03T17:53:50.046Z,2.90
2018-08-03T17:56:18.255Z,2.83
2018-08-03T17:58:46.839Z,3.00
2018-08-03T18:01:15.097Z,2.67
2018-08-03T18:03:43.359Z,2.77
2018-08-03T18:06:11.347Z,2.70
2018-08-03T18:08:39.718Z,3.17
2018-08-03T18:11:08.290Z,3.25
2018-08-03T18:13:36.537Z,2.90
2018-08-03T18:16:04.887Z,3.83
2018-08-03T18:18:33.190Z,3.10
2018-08-03T18:21:01.851Z,3.22
2018-08-03T18:23:31.307Z,3.10
2018-08-03T18:25:59.591Z,3.45
2018-08-03T18:28:27.826Z,3.35
2018-08-03T18:30:56.089Z,3.20
2018-08-03T18:33:24.310Z,3.27
2018-08-03T18:35:52.550Z,3.30
2018-08-03T18:38:20.783Z,3.50
2018-08-03T18:40:49.040Z,3.12
2018-08-03T18:43:17.251Z,3.10
2018-08-03T18:45:45.467Z,3.52
2018-08-03T18:48:13.455Z,3.90
2018-08-03T18:50:41.678Z,3.58
2018-08-03T18:53:09.892Z,3.30
2018-08-03T18:55:38.130Z,3.42
2018-08-03T18:58:06.418Z,3.30
2018-08-03T19:00:34.655Z,3.75
2018-08-03T19:03:02.863Z,3.75
2018-08-03T19:05:31.095Z,3.40
2018-08-03T19:07:59.343Z,3.70
2018-08-03T19:10:27.615Z,3.27
2018-08-03T19:12:55.834Z,3.17
2018-08-03T19:15:29.230Z,3.30
2018-08-03T19:17:57.567Z,3.80
2018-08-03T19:20:25.783Z,3.80
2018-08-03T19:22:54.019Z,5.12
2018-08-03T19:25:22.257Z,4.83
2018-08-03T19:27:50.847Z,4.65
2018-08-03T19:30:19.112Z,3.98
2018-08-03T19:32:49.435Z,4.40
2018-08-03T19:35:17.675Z,4.80
2018-08-03T19:37:46.017Z,4.08
2018-08-03T19:40:14.192Z,4.77
2018-08-03T19:42:42.406Z,4.20
2018-08-03T19:45:10.628Z,3.65
2018-08-03T19:47:38.850Z,3.93
2018-08-03T19:50:08.177Z,3.77
2018-08-03T19:52:36.458Z,3.60
2018-08-03T19:55:04.640Z,3.00
2018-08-03T19:57:32.627Z,3.30
2018-08-03T20:00:00.840Z,3.00
2018-08-03T20:02:29.048Z,3.27
2018-08-03T20:04:57.289Z,3.23
2018-08-03T20:07:25.511Z,3.20
2018-08-03T20:09:53.758Z,3.40
2018-08-03T20:12:22.391Z,3.20
2018-08-03T20:14:50.628Z,3.00
2018-08-03T20:17:18.866Z,3.23
2018-08-03T20:19:47.428Z,2.57
2018-08-03T20:22:17.607Z,3.00
2018-08-03T20:24:46.302Z,3.00
2018-08-03T20:27:15.095Z,3.50
2018-08-03T20:29:43.250Z,2.90
2018-08-03T20:32:11.487Z,3.10
2018-08-03T20:34:39.706Z,3.27
2018-08-03T20:37:07.940Z,3.30
2018-08-03T20:39:36.155Z,3.70
2018-08-03T20:42:04.429Z,4.00
2018-08-03T20:44:32.666Z,3.93
2018-08-03T20:47:01.170Z,3.50
2018-08-03T20:49:29.419Z,3.73
2018-08-03T20:51:57.664Z,3.60
2018-08-03T20:54:25.941Z,3.70
2018-08-03T20:56:54.153Z,3.30
2018-08-03T20:59:22.355Z,3.50
2018-08-03T21:01:50.599Z,3.03
2018-08-03T21:04:18.809Z,3.07
2018-08-03T21:06:48.169Z,3.00
2018-08-03T21:09:18.276Z,3.63
2018-08-03T21:11:46.615Z,3.20
2018-08-03T21:14:15.012Z,3.30
2018-08-03T21:16:45.395Z,3.07
2018-08-03T21:19:13.646Z,3.07
2018-08-03T21:21:41.855Z,3.33
2018-08-03T21:24:09.818Z,3.13
2018-08-03T21:26:38.055Z,3.63
2018-08-03T21:29:06.247Z,3.57
2018-08-03T21:31:34.672Z,3.37
2018-08-03T21:34:02.868Z,3.30
2018-08-03T21:36:31.100Z,3.40
2018-08-03T21:38:59.307Z,3.70
2018-08-03T21:41:27.529Z,3.73
2018-08-03T21:43:55.789Z,3.57
2018-08-03T21:46:23.958Z,3.60
2018-08-03T21:48:52.174Z,3.77
2018-08-03T21:51:20.154Z,3.50
2018-08-03T21:53:48.404Z,3.30
2018-08-03T21:56:16.634Z,3.57
2018-08-03T21:58:44.826Z,3.17
2018-08-03T22:01:13.834Z,3.40
2018-08-03T22:03:42.463Z,3.80
2018-08-03T22:06:10.718Z,3.60
2018-08-03T22:08:39.350Z,3.90
2018-08-03T22:11:07.593Z,3.60
2018-08-03T22:13:35.782Z,3.80
2018-08-03T22:16:04.058Z,3.43
2018-08-03T22:18:32.249Z,3.43
2018-08-03T22:21:00.434Z,3.43
2018-08-03T22:23:28.640Z,3.70
2018-08-03T22:25:56.971Z,3.90
2018-08-03T22:28:25.178Z,3.70
2018-08-03T22:30:53.378Z,4.10
2018-08-03T22:33:21.614Z,4.00
2018-08-03T22:35:49.823Z,4.00
2018-08-03T22:38:18.041Z,3.70
2018-08-03T22:40:46.252Z,3.50
2018-08-03T22:43:14.241Z,4.00
2018-08-03T22:45:42.565Z,4.00
2018-08-03T22:48:10.764Z,3.40
2018-08-03T22:50:39.027Z,3.30
2018-08-03T22:53:07.410Z,3.80
2018-08-03T22:55:35.650Z,3.73
2018-08-03T22:58:03.988Z,3.43
2018-08-03T23:00:32.242Z,3.67
2018-08-03T23:03:00.485Z,3.50
2018-08-03T23:05:28.674Z,3.20
2018-08-03T23:07:56.899Z,3.20
2018-08-03T23:10:25.118Z,3.77
2018-08-03T23:12:53.341Z,4.27
2018-08-03T23:15:21.647Z,3.60
2018-08-03T23:18:09.972Z,4.40
2018-08-03T23:20:38.439Z,3.60
2018-08-03T23:23:06.663Z,3.30
2018-08-03T23:25:34.883Z,3.20
2018-08-03T23:28:02.862Z,3.53
2018-08-03T23:30:31.050Z,3.80
2018-08-03T23:32:59.282Z,3.57
2018-08-03T23:35:27.251Z,3.53
2018-08-03T23:37:55.468Z,3.60
2018-08-03T23:40:23.655Z,3.23
2018-08-03T23:42:51.871Z,3.20
2018-08-03T23:45:20.070Z,3.33
2018-08-03T23:47:48.298Z,3.50
2018-08-03T23:50:19.102Z,3.13
2018-08-03T23:52:48.732Z,3.50
2018-08-03T23:55:17.012Z,3.40
2018-08-03T23:57:45.605Z,3.50
